Accueil
METAR-TAF:

METAR-TAF

Aéroports :

Rimini, Italie

Aéroport Federico-Fellini

latitude: 44-02N, longitude: 012-37E, altitude: 12 m

Observation

Le bulletin a été fait il y a 27 minutes, à 09:45 UTC
Vent 11 kt de ouest/nord-ouest
Température 7°C
Humidité 87%
Pression 1010 hPa
Visibilité: 7000 m
Quelques nuages à une hauteur de 1700 ft
Nuages fragmentés à une hauteur de 3000 ft

METAR: LIPR 240945Z 29011KT 7000 FEW017 BKN030 07/05 Q1010

Heure: 11:12 (10:12 UTC)

Prévision

Le bulletin a été fait il y a 5 heures et 11 minutes, à 05:01 UTC
Prévision valable du 24 à 06 UTC au 24 à 15 UTC
Vent 10 kt de nord
Visibilité: 7000 m
Nuages fragmentés à une hauteur de 2500 ft
Temporairement
du 24 à 06 UTC au 24 à 12 UTC
Visibilité: 5000 m
pluie, brume

TAF: LIPR 240501Z 2406/2415 01010KT 7000 BKN025 TEMPO 2406/2412 5000 RA BR

Observations et prévisions météorologiques de plus de 4000 aéroports (messages METAR et TAF).

Les stations disponibles sont représentées par des disques jaunes et rouges sur la carte.

Passer la souris dessus pour voir le nom de la station.

Cliquer dessus pour voir les observations et prévisions météorologiques.

Pour changer de carte: cliquez sur les boutons verts avec une croix noire pour zoomer, sur le bouton vert avec un tiret pour effectuer un zoom arrière, ou sur les flèches vertes pour les cartes adjacentes.


METAR-TAF: